sensor_id;sensor_type;location;lat;lon;timestamp;temperature;humidity
51996;DHT22;38010;53.264;6.592;2023-01-24T00:01:24;13.30;99.90
51996;DHT22;38010;53.264;6.592;2023-01-24T00:03:50;13.30;99.90
51996;DHT22;38010;53.264;6.592;2023-01-24T00:06:15;13.30;99.90
51996;DHT22;38010;53.264;6.592;2023-01-24T00:08:41;13.30;99.90
51996;DHT22;38010;53.264;6.592;2023-01-24T00:11:10;13.30;99.90
51996;DHT22;38010;53.264;6.592;2023-01-24T00:13:37;13.30;99.90
51996;DHT22;38010;53.264;6.592;2023-01-24T00:16:10;13.30;99.90
51996;DHT22;38010;53.264;6.592;2023-01-24T00:18:37;13.30;99.90
51996;DHT22;38010;53.264;6.592;2023-01-24T00:21:06;13.30;99.90
51996;DHT22;38010;53.264;6.592;2023-01-24T00:23:44;13.30;99.90
51996;DHT22;38010;53.264;6.592;2023-01-24T00:26:11;13.20;99.90
51996;DHT22;38010;53.264;6.592;2023-01-24T00:28:37;13.30;99.90
51996;DHT22;38010;53.264;6.592;2023-01-24T00:31:04;13.20;99.90
51996;DHT22;38010;53.264;6.592;2023-01-24T00:33:30;13.20;99.90
51996;DHT22;38010;53.264;6.592;2023-01-24T00:35:56;13.20;99.90
51996;DHT22;38010;53.264;6.592;2023-01-24T00:38:22;13.20;99.90
51996;DHT22;38010;53.264;6.592;2023-01-24T00:40:48;13.20;99.90
51996;DHT22;38010;53.264;6.592;2023-01-24T00:43:14;13.20;99.90
51996;DHT22;38010;53.264;6.592;2023-01-24T00:45:40;13.20;99.90
51996;DHT22;38010;53.264;6.592;2023-01-24T00:48:07;13.20;99.90
51996;DHT22;38010;53.264;6.592;2023-01-24T00:50:34;13.20;99.90
51996;DHT22;38010;53.264;6.592;2023-01-24T00:53:00;13.20;99.90
51996;DHT22;38010;53.264;6.592;2023-01-24T00:55:26;13.20;99.90
51996;DHT22;38010;53.264;6.592;2023-01-24T00:57:52;13.20;99.90
51996;DHT22;38010;53.264;6.592;2023-01-24T01:00:18;13.20;99.90
51996;DHT22;38010;53.264;6.592;2023-01-24T01:02:43;13.20;99.90
51996;DHT22;38010;53.264;6.592;2023-01-24T01:05:09;13.20;99.90
51996;DHT22;38010;53.264;6.592;2023-01-24T01:07:35;13.10;99.90
51996;DHT22;38010;53.264;6.592;2023-01-24T01:10:01;13.10;99.90
51996;DHT22;38010;53.264;6.592;2023-01-24T01:12:27;13.10;99.90
51996;DHT22;38010;53.264;6.592;2023-01-24T01:14:53;13.10;99.90
51996;DHT22;38010;53.264;6.592;2023-01-24T01:17:18;13.10;99.90
51996;DHT22;38010;53.264;6.592;2023-01-24T01:19:44;13.10;99.90
51996;DHT22;38010;53.264;6.592;2023-01-24T01:22:10;13.10;99.90
51996;DHT22;38010;53.264;6.592;2023-01-24T01:24:36;13.10;99.90
51996;DHT22;38010;53.264;6.592;2023-01-24T01:27:01;13.10;99.90
51996;DHT22;38010;53.264;6.592;2023-01-24T01:29:27;13.10;99.90
51996;DHT22;38010;53.264;6.592;2023-01-24T01:31:53;13.10;99.90
51996;DHT22;38010;53.264;6.592;2023-01-24T01:34:19;13.10;99.90
51996;DHT22;38010;53.264;6.592;2023-01-24T01:36:45;13.10;99.90
51996;DHT22;38010;53.264;6.592;2023-01-24T01:39:11;13.00;99.90
51996;DHT22;38010;53.264;6.592;2023-01-24T01:44:23;13.00;99.90
51996;DHT22;38010;53.264;6.592;2023-01-24T01:47:44;13.00;99.90
51996;DHT22;38010;53.264;6.592;2023-01-24T01:50:19;13.00;99.90
51996;DHT22;38010;53.264;6.592;2023-01-24T01:52:48;13.00;99.90
51996;DHT22;38010;53.264;6.592;2023-01-24T01:55:19;13.00;99.90
51996;DHT22;38010;53.264;6.592;2023-01-24T01:57:47;13.00;99.90
51996;DHT22;38010;53.264;6.592;2023-01-24T02:02:43;13.00;99.90
51996;DHT22;38010;53.264;6.592;2023-01-24T02:05:12;13.00;99.90
51996;DHT22;38010;53.264;6.592;2023-01-24T02:10:08;13.00;99.90
51996;DHT22;38010;53.264;6.592;2023-01-24T02:12:44;13.00;99.90
51996;DHT22;38010;53.264;6.592;2023-01-24T02:18:05;13.00;99.90
51996;DHT22;38010;53.264;6.592;2023-01-24T02:20:45;13.00;99.90
51996;DHT22;38010;53.264;6.592;2023-01-24T02:26:09;13.00;99.90
51996;DHT22;38010;53.264;6.592;2023-01-24T02:28:36;13.00;99.90
51996;DHT22;38010;53.264;6.592;2023-01-24T02:31:03;13.00;99.90
51996;DHT22;38010;53.264;6.592;2023-01-24T02:33:30;13.00;99.90
51996;DHT22;38010;53.264;6.592;2023-01-24T02:39:17;13.00;99.90
51996;DHT22;38010;53.264;6.592;2023-01-24T02:42:14;13.00;99.90
51996;DHT22;38010;53.264;6.592;2023-01-24T02:44:43;13.10;99.90
51996;DHT22;38010;53.264;6.592;2023-01-24T02:47:10;13.10;99.90
51996;DHT22;38010;53.264;6.592;2023-01-24T02:49:36;13.10;99.90
51996;DHT22;38010;53.264;6.592;2023-01-24T02:54:46;13.20;99.90
51996;DHT22;38010;53.264;6.592;2023-01-24T02:57:12;13.20;99.90
51996;DHT22;38010;53.264;6.592;2023-01-24T02:59:56;13.20;99.90
51996;DHT22;38010;53.264;6.592;2023-01-24T03:02:22;13.20;99.90
51996;DHT22;38010;53.264;6.592;2023-01-24T03:04:47;13.20;99.90
51996;DHT22;38010;53.264;6.592;2023-01-24T03:07:13;13.20;99.90
51996;DHT22;38010;53.264;6.592;2023-01-24T03:09:39;13.20;99.90
51996;DHT22;38010;53.264;6.592;2023-01-24T03:12:14;13.20;99.90
51996;DHT22;38010;53.264;6.592;2023-01-24T03:14:58;13.20;99.90
51996;DHT22;38010;53.264;6.592;2023-01-24T03:17:43;13.20;99.90
51996;DHT22;38010;53.264;6.592;2023-01-24T03:20:27;13.20;99.90
51996;DHT22;38010;53.264;6.592;2023-01-24T03:23:12;13.20;99.90
51996;DHT22;38010;53.264;6.592;2023-01-24T03:25:57;13.20;99.90
51996;DHT22;38010;53.264;6.592;2023-01-24T03:28:42;13.20;99.90
51996;DHT22;38010;53.264;6.592;2023-01-24T03:31:26;13.20;99.90
51996;DHT22;38010;53.264;6.592;2023-01-24T03:34:10;13.20;99.90
51996;DHT22;38010;53.264;6.592;2023-01-24T03:36:55;13.30;99.90
51996;DHT22;38010;53.264;6.592;2023-01-24T03:39:20;13.30;99.90
51996;DHT22;38010;53.264;6.592;2023-01-24T03:42:05;13.30;99.90
51996;DHT22;38010;53.264;6.592;2023-01-24T03:44:30;13.30;99.90
51996;DHT22;38010;53.264;6.592;2023-01-24T03:46:56;13.30;99.90
51996;DHT22;38010;53.264;6.592;2023-01-24T03:49:22;13.30;99.90
51996;DHT22;38010;53.264;6.592;2023-01-24T03:52:06;13.30;99.90
51996;DHT22;38010;53.264;6.592;2023-01-24T03:54:52;13.30;99.90
51996;DHT22;38010;53.264;6.592;2023-01-24T03:57:17;13.30;99.90
51996;DHT22;38010;53.264;6.592;2023-01-24T03:59:43;13.30;99.90
51996;DHT22;38010;53.264;6.592;2023-01-24T04:02:09;13.30;99.90
51996;DHT22;38010;53.264;6.592;2023-01-24T04:04:35;13.30;99.90
51996;DHT22;38010;53.264;6.592;2023-01-24T04:07:19;13.30;99.90
51996;DHT22;38010;53.264;6.592;2023-01-24T04:09:45;13.30;99.90
51996;DHT22;38010;53.264;6.592;2023-01-24T04:12:10;13.30;99.90
51996;DHT22;38010;53.264;6.592;2023-01-24T04:14:36;13.30;99.90
51996;DHT22;38010;53.264;6.592;2023-01-24T04:17:02;13.30;99.90
51996;DHT22;38010;53.264;6.592;2023-01-24T04:19:27;13.30;99.90
51996;DHT22;38010;53.264;6.592;2023-01-24T04:21:53;13.30;99.90
51996;DHT22;38010;53.264;6.592;2023-01-24T04:24:19;13.30;99.90
51996;DHT22;38010;53.264;6.592;2023-01-24T04:26:44;13.30;99.90
51996;DHT22;38010;53.264;6.592;2023-01-24T04:29:10;13.30;99.90
51996;DHT22;38010;53.264;6.592;2023-01-24T04:31:36;13.30;99.90
51996;DHT22;38010;53.264;6.592;2023-01-24T04:34:02;13.30;99.90
51996;DHT22;38010;53.264;6.592;2023-01-24T04:36:27;13.30;99.90
51996;DHT22;38010;53.264;6.592;2023-01-24T04:38:55;13.30;99.90
51996;DHT22;38010;53.264;6.592;2023-01-24T04:41:20;13.30;99.90
51996;DHT22;38010;53.264;6.592;2023-01-24T04:43:46;13.30;99.90
51996;DHT22;38010;53.264;6.592;2023-01-24T04:46:12;13.30;99.90
51996;DHT22;38010;53.264;6.592;2023-01-24T04:48:38;13.30;99.90
51996;DHT22;38010;53.264;6.592;2023-01-24T04:51:04;13.40;99.90
51996;DHT22;38010;53.264;6.592;2023-01-24T04:53:30;13.40;99.90
51996;DHT22;38010;53.264;6.592;2023-01-24T04:56:02;13.40;99.90
51996;DHT22;38010;53.264;6.592;2023-01-24T04:58:27;13.40;99.90
51996;DHT22;38010;53.264;6.592;2023-01-24T05:00:53;13.30;99.90
51996;DHT22;38010;53.264;6.592;2023-01-24T05:03:19;13.30;99.90
51996;DHT22;38010;53.264;6.592;2023-01-24T05:05:49;13.30;99.90
51996;DHT22;38010;53.264;6.592;2023-01-24T05:08:15;13.30;99.90
51996;DHT22;38010;53.264;6.592;2023-01-24T05:10:40;13.40;99.90
51996;DHT22;38010;53.264;6.592;2023-01-24T05:13:06;13.30;99.90
51996;DHT22;38010;53.264;6.592;2023-01-24T05:15:32;13.40;99.90
51996;DHT22;38010;53.264;6.592;2023-01-24T05:17:57;13.30;99.90
51996;DHT22;38010;53.264;6.592;2023-01-24T05:20:26;13.30;99.90
51996;DHT22;38010;53.264;6.592;2023-01-24T05:22:51;13.40;99.90
51996;DHT22;38010;53.264;6.592;2023-01-24T05:25:17;13.40;99.90
51996;DHT22;38010;53.264;6.592;2023-01-24T05:27:44;13.40;99.90
51996;DHT22;38010;53.264;6.592;2023-01-24T05:30:10;13.30;99.90
51996;DHT22;38010;53.264;6.592;2023-01-24T05:32:36;13.40;99.90
51996;DHT22;38010;53.264;6.592;2023-01-24T05:35:03;13.30;99.90
51996;DHT22;38010;53.264;6.592;2023-01-24T05:37:29;13.40;99.90
51996;DHT22;38010;53.264;6.592;2023-01-24T05:39:55;13.30;99.90
51996;DHT22;38010;53.264;6.592;2023-01-24T05:42:20;13.30;99.90
51996;DHT22;38010;53.264;6.592;2023-01-24T05:44:46;13.30;99.90
51996;DHT22;38010;53.264;6.592;2023-01-24T05:47:12;13.30;99.90
51996;DHT22;38010;53.264;6.592;2023-01-24T05:49:37;13.30;99.90
51996;DHT22;38010;53.264;6.592;2023-01-24T05:52:06;13.30;99.90
51996;DHT22;38010;53.264;6.592;2023-01-24T05:54:32;13.30;99.90
51996;DHT22;38010;53.264;6.592;2023-01-24T05:56:57;13.30;99.90
51996;DHT22;38010;53.264;6.592;2023-01-24T05:59:23;13.30;99.90
51996;DHT22;38010;53.264;6.592;2023-01-24T06:01:49;13.30;99.90
51996;DHT22;38010;53.264;6.592;2023-01-24T06:04:14;13.30;99.90
51996;DHT22;38010;53.264;6.592;2023-01-24T06:06:40;13.30;99.90
51996;DHT22;38010;53.264;6.592;2023-01-24T06:09:07;13.30;99.90
51996;DHT22;38010;53.264;6.592;2023-01-24T06:11:34;13.40;99.90
51996;DHT22;38010;53.264;6.592;2023-01-24T06:13:59;13.30;99.90
51996;DHT22;38010;53.264;6.592;2023-01-24T06:16:26;13.40;99.90
51996;DHT22;38010;53.264;6.592;2023-01-24T06:18:53;13.40;99.90
51996;DHT22;38010;53.264;6.592;2023-01-24T06:23:57;13.40;99.90
51996;DHT22;38010;53.264;6.592;2023-01-24T06:26:22;13.40;99.90
51996;DHT22;38010;53.264;6.592;2023-01-24T06:28:48;13.40;99.90
51996;DHT22;38010;53.264;6.592;2023-01-24T06:39:36;13.40;99.90
51996;DHT22;38010;53.264;6.592;2023-01-24T06:42:03;13.40;99.90
51996;DHT22;38010;53.264;6.592;2023-01-24T06:44:29;13.40;99.90
51996;DHT22;38010;53.264;6.592;2023-01-24T06:46:55;13.40;99.90
51996;DHT22;38010;53.264;6.592;2023-01-24T06:49:21;13.50;99.90
51996;DHT22;38010;53.264;6.592;2023-01-24T06:51:50;13.40;99.90
51996;DHT22;38010;53.264;6.592;2023-01-24T06:54:16;13.50;99.90
51996;DHT22;38010;53.264;6.592;2023-01-24T06:56:42;13.50;99.90
51996;DHT22;38010;53.264;6.592;2023-01-24T06:59:08;13.50;99.90
51996;DHT22;38010;53.264;6.592;2023-01-24T07:01:34;13.50;99.90
51996;DHT22;38010;53.264;6.592;2023-01-24T07:03:59;13.50;99.90
51996;DHT22;38010;53.264;6.592;2023-01-24T07:06:25;13.50;99.90
51996;DHT22;38010;53.264;6.592;2023-01-24T07:08:52;13.50;99.90
51996;DHT22;38010;53.264;6.592;2023-01-24T07:11:18;13.50;99.90
51996;DHT22;38010;53.264;6.592;2023-01-24T07:13:44;13.50;99.90
51996;DHT22;38010;53.264;6.592;2023-01-24T07:16:09;13.40;99.90
51996;DHT22;38010;53.264;6.592;2023-01-24T07:18:35;13.40;99.90
51996;DHT22;38010;53.264;6.592;2023-01-24T07:21:05;13.40;99.90
51996;DHT22;38010;53.264;6.592;2023-01-24T07:23:32;13.40;99.90
51996;DHT22;38010;53.264;6.592;2023-01-24T07:26:00;13.40;99.90
51996;DHT22;38010;53.264;6.592;2023-01-24T07:28:26;13.40;99.90
51996;DHT22;38010;53.264;6.592;2023-01-24T07:30:52;13.40;99.90
51996;DHT22;38010;53.264;6.592;2023-01-24T07:33:19;13.40;99.90
51996;DHT22;38010;53.264;6.592;2023-01-24T07:35:44;13.40;99.90
51996;DHT22;38010;53.264;6.592;2023-01-24T07:38:10;13.50;99.90
51996;DHT22;38010;53.264;6.592;2023-01-24T07:40:38;13.50;99.90
51996;DHT22;38010;53.264;6.592;2023-01-24T07:43:04;13.50;99.90
51996;DHT22;38010;53.264;6.592;2023-01-24T07:45:30;13.50;99.90
51996;DHT22;38010;53.264;6.592;2023-01-24T07:47:58;13.50;99.90
51996;DHT22;38010;53.264;6.592;2023-01-24T07:50:25;13.50;99.90
51996;DHT22;38010;53.264;6.592;2023-01-24T07:52:54;13.50;99.90
51996;DHT22;38010;53.264;6.592;2023-01-24T07:55:21;13.50;99.90
51996;DHT22;38010;53.264;6.592;2023-01-24T07:57:48;13.60;99.90
51996;DHT22;38010;53.264;6.592;2023-01-24T08:00:14;13.60;99.90
51996;DHT22;38010;53.264;6.592;2023-01-24T08:02:44;13.60;99.90
51996;DHT22;38010;53.264;6.592;2023-01-24T08:05:10;13.60;99.90
51996;DHT22;38010;53.264;6.592;2023-01-24T08:07:36;13.60;99.90
51996;DHT22;38010;53.264;6.592;2023-01-24T08:10:02;13.50;99.90
51996;DHT22;38010;53.264;6.592;2023-01-24T08:12:28;13.50;99.90
51996;DHT22;38010;53.264;6.592;2023-01-24T08:14:53;13.50;99.90
51996;DHT22;38010;53.264;6.592;2023-01-24T08:17:19;13.50;99.90
51996;DHT22;38010;53.264;6.592;2023-01-24T08:19:45;13.50;99.90
51996;DHT22;38010;53.264;6.592;2023-01-24T08:22:10;13.60;99.90
51996;DHT22;38010;53.264;6.592;2023-01-24T08:24:36;13.50;99.90
51996;DHT22;38010;53.264;6.592;2023-01-24T08:27:02;13.50;99.90
51996;DHT22;38010;53.264;6.592;2023-01-24T08:29:29;13.50;99.90
51996;DHT22;38010;53.264;6.592;2023-01-24T08:31:55;13.60;99.90
51996;DHT22;38010;53.264;6.592;2023-01-24T08:34:21;13.60;99.90
51996;DHT22;38010;53.264;6.592;2023-01-24T08:36:46;13.60;99.90
51996;DHT22;38010;53.264;6.592;2023-01-24T08:39:12;13.60;99.90
51996;DHT22;38010;53.264;6.592;2023-01-24T08:41:38;13.60;99.90
51996;DHT22;38010;53.264;6.592;2023-01-24T08:44:04;13.60;99.90
51996;DHT22;38010;53.264;6.592;2023-01-24T08:46:31;13.60;99.90
51996;DHT22;38010;53.264;6.592;2023-01-24T08:48:57;13.60;99.90
51996;DHT22;38010;53.264;6.592;2023-01-24T08:51:23;13.60;99.90
51996;DHT22;38010;53.264;6.592;2023-01-24T08:53:48;13.60;99.90
51996;DHT22;38010;53.264;6.592;2023-01-24T08:56:14;13.60;99.90
51996;DHT22;38010;53.264;6.592;2023-01-24T08:58:40;13.60;99.90
51996;DHT22;38010;53.264;6.592;2023-01-24T09:01:07;13.60;99.90
51996;DHT22;38010;53.264;6.592;2023-01-24T09:03:33;13.60;99.90
51996;DHT22;38010;53.264;6.592;2023-01-24T09:05:58;13.60;99.90
51996;DHT22;38010;53.264;6.592;2023-01-24T09:08:24;13.60;99.90
51996;DHT22;38010;53.264;6.592;2023-01-24T09:10:50;13.60;99.90
51996;DHT22;38010;53.264;6.592;2023-01-24T09:13:16;13.60;99.90
51996;DHT22;38010;53.264;6.592;2023-01-24T09:15:42;13.60;99.90
51996;DHT22;38010;53.264;6.592;2023-01-24T09:18:08;13.60;99.90
51996;DHT22;38010;53.264;6.592;2023-01-24T09:20:34;13.60;99.90
51996;DHT22;38010;53.264;6.592;2023-01-24T09:23:07;13.70;99.90
51996;DHT22;38010;53.264;6.592;2023-01-24T09:25:32;13.70;99.90
51996;DHT22;38010;53.264;6.592;2023-01-24T09:27:58;13.60;99.90
51996;DHT22;38010;53.264;6.592;2023-01-24T09:30:24;13.60;99.90
51996;DHT22;38010;53.264;6.592;2023-01-24T09:32:49;13.60;99.90
51996;DHT22;38010;53.264;6.592;2023-01-24T09:35:15;13.70;99.90
51996;DHT22;38010;53.264;6.592;2023-01-24T09:37:41;13.60;99.90
51996;DHT22;38010;53.264;6.592;2023-01-24T09:40:23;13.60;99.90
51996;DHT22;38010;53.264;6.592;2023-01-24T09:46:04;13.70;99.90
51996;DHT22;38010;53.264;6.592;2023-01-24T09:48:33;13.60;99.90
51996;DHT22;38010;53.264;6.592;2023-01-24T09:51:14;13.60;99.90
51996;DHT22;38010;53.264;6.592;2023-01-24T09:53:46;13.60;99.90
51996;DHT22;38010;53.264;6.592;2023-01-24T09:56:22;13.60;99.90
51996;DHT22;38010;53.264;6.592;2023-01-24T10:01:40;13.60;99.90
51996;DHT22;38010;53.264;6.592;2023-01-24T10:04:19;13.70;99.90
51996;DHT22;38010;53.264;6.592;2023-01-24T10:10:02;13.70;99.90
51996;DHT22;38010;53.264;6.592;2023-01-24T10:13:15;13.70;99.90
51996;DHT22;38010;53.264;6.592;2023-01-24T10:23:43;13.70;99.90
51996;DHT22;38010;53.264;6.592;2023-01-24T10:28:58;13.70;99.90
51996;DHT22;38010;53.264;6.592;2023-01-24T10:31:29;13.60;99.90
51996;DHT22;38010;53.264;6.592;2023-01-24T10:33:58;13.70;99.90
51996;DHT22;38010;53.264;6.592;2023-01-24T10:36:35;13.70;99.90
51996;DHT22;38010;53.264;6.592;2023-01-24T10:39:04;13.70;99.90
51996;DHT22;38010;53.264;6.592;2023-01-24T10:41:31;13.70;99.90
51996;DHT22;38010;53.264;6.592;2023-01-24T10:44:04;13.70;99.90
51996;DHT22;38010;53.264;6.592;2023-01-24T10:49:26;13.70;99.90
51996;DHT22;38010;53.264;6.592;2023-01-24T10:54:58;13.70;99.90
51996;DHT22;38010;53.264;6.592;2023-01-24T10:57:32;13.70;99.90
51996;DHT22;38010;53.264;6.592;2023-01-24T11:03:00;13.70;99.90
51996;DHT22;38010;53.264;6.592;2023-01-24T11:05:41;13.60;99.90
51996;DHT22;38010;53.264;6.592;2023-01-24T11:08:17;13.70;99.90
51996;DHT22;38010;53.264;6.592;2023-01-24T11:10:43;13.70;99.90
51996;DHT22;38010;53.264;6.592;2023-01-24T11:13:32;13.70;99.90
51996;DHT22;38010;53.264;6.592;2023-01-24T11:16:20;13.70;99.90
51996;DHT22;38010;53.264;6.592;2023-01-24T11:18:50;13.70;99.90
51996;DHT22;38010;53.264;6.592;2023-01-24T11:21:18;13.70;99.90
51996;DHT22;38010;53.264;6.592;2023-01-24T11:23:45;13.70;99.90
51996;DHT22;38010;53.264;6.592;2023-01-24T11:26:29;13.70;99.90
51996;DHT22;38010;53.264;6.592;2023-01-24T11:29:03;13.60;99.90
51996;DHT22;38010;53.264;6.592;2023-01-24T11:31:36;13.70;99.90
51996;DHT22;38010;53.264;6.592;2023-01-24T11:34:12;13.70;99.90
51996;DHT22;38010;53.264;6.592;2023-01-24T11:36:57;13.70;99.90
51996;DHT22;38010;53.264;6.592;2023-01-24T11:42:20;13.70;99.90
51996;DHT22;38010;53.264;6.592;2023-01-24T11:53:30;13.70;99.90
51996;DHT22;38010;53.264;6.592;2023-01-24T11:59:04;13.70;99.90
51996;DHT22;38010;53.264;6.592;2023-01-24T12:18:36;13.70;99.90
51996;DHT22;38010;53.264;6.592;2023-01-24T12:21:06;13.70;99.90
51996;DHT22;38010;53.264;6.592;2023-01-24T12:26:23;13.70;99.90
51996;DHT22;38010;53.264;6.592;2023-01-24T12:29:20;13.70;99.90
51996;DHT22;38010;53.264;6.592;2023-01-24T12:32:00;13.70;99.90
51996;DHT22;38010;53.264;6.592;2023-01-24T12:34:32;13.60;99.90
51996;DHT22;38010;53.264;6.592;2023-01-24T12:40:03;13.60;99.90
51996;DHT22;38010;53.264;6.592;2023-01-24T12:42:57;13.60;99.90
51996;DHT22;38010;53.264;6.592;2023-01-24T12:45:34;13.60;99.90
51996;DHT22;38010;53.264;6.592;2023-01-24T12:50:47;13.60;99.90
51996;DHT22;38010;53.264;6.592;2023-01-24T12:53:33;13.60;99.90
51996;DHT22;38010;53.264;6.592;2023-01-24T12:56:04;13.60;99.90
51996;DHT22;38010;53.264;6.592;2023-01-24T12:58:35;13.70;99.90
51996;DHT22;38010;53.264;6.592;2023-01-24T13:07:06;13.70;99.90
51996;DHT22;38010;53.264;6.592;2023-01-24T13:12:03;13.70;99.90
51996;DHT22;38010;53.264;6.592;2023-01-24T13:14:30;13.60;99.90
51996;DHT22;38010;53.264;6.592;2023-01-24T13:22:38;13.70;99.90
51996;DHT22;38010;53.264;6.592;2023-01-24T13:27:57;13.70;99.90
51996;DHT22;38010;53.264;6.592;2023-01-24T13:33:02;13.70;99.90
51996;DHT22;38010;53.264;6.592;2023-01-24T13:35:29;13.70;99.90
51996;DHT22;38010;53.264;6.592;2023-01-24T13:41:01;13.70;99.90
51996;DHT22;38010;53.264;6.592;2023-01-24T13:46:12;13.70;99.90
51996;DHT22;38010;53.264;6.592;2023-01-24T13:51:32;13.70;99.90
51996;DHT22;38010;53.264;6.592;2023-01-24T13:54:07;13.70;99.90
51996;DHT22;38010;53.264;6.592;2023-01-24T13:59:29;13.70;99.90
51996;DHT22;38010;53.264;6.592;2023-01-24T14:01:55;13.70;99.90
51996;DHT22;38010;53.264;6.592;2023-01-24T14:04:41;13.70;99.90
51996;DHT22;38010;53.264;6.592;2023-01-24T14:07:17;13.70;99.90
51996;DHT22;38010;53.264;6.592;2023-01-24T14:09:45;13.70;99.90
51996;DHT22;38010;53.264;6.592;2023-01-24T14:12:18;13.70;99.90
51996;DHT22;38010;53.264;6.592;2023-01-24T14:20:24;13.70;99.90
51996;DHT22;38010;53.264;6.592;2023-01-24T14:22:57;13.70;99.90
51996;DHT22;38010;53.264;6.592;2023-01-24T14:28:04;13.70;99.90
51996;DHT22;38010;53.264;6.592;2023-01-24T14:30:44;13.70;99.90
51996;DHT22;38010;53.264;6.592;2023-01-24T14:33:43;13.70;99.90
51996;DHT22;38010;53.264;6.592;2023-01-24T14:36:21;13.70;99.90
51996;DHT22;38010;53.264;6.592;2023-01-24T14:38:50;13.70;99.90
51996;DHT22;38010;53.264;6.592;2023-01-24T14:41:34;13.70;99.90
51996;DHT22;38010;53.264;6.592;2023-01-24T14:43:59;13.70;99.90
51996;DHT22;38010;53.264;6.592;2023-01-24T14:46:25;13.70;99.90
51996;DHT22;38010;53.264;6.592;2023-01-24T14:48:51;13.70;99.90
51996;DHT22;38010;53.264;6.592;2023-01-24T14:51:21;13.70;99.90
51996;DHT22;38010;53.264;6.592;2023-01-24T14:53:50;13.70;99.90
51996;DHT22;38010;53.264;6.592;2023-01-24T14:56:17;13.70;99.90
51996;DHT22;38010;53.264;6.592;2023-01-24T14:58:43;13.70;99.90
51996;DHT22;38010;53.264;6.592;2023-01-24T15:01:25;13.70;99.90
51996;DHT22;38010;53.264;6.592;2023-01-24T15:03:52;13.70;99.90
51996;DHT22;38010;53.264;6.592;2023-01-24T15:06:21;13.70;99.90
51996;DHT22;38010;53.264;6.592;2023-01-24T15:08:47;13.70;99.90
51996;DHT22;38010;53.264;6.592;2023-01-24T15:11:25;13.70;99.90
51996;DHT22;38010;53.264;6.592;2023-01-24T15:14:05;13.80;99.90
51996;DHT22;38010;53.264;6.592;2023-01-24T15:23:55;13.80;99.90
51996;DHT22;38010;53.264;6.592;2023-01-24T15:28:48;13.80;99.90
51996;DHT22;38010;53.264;6.592;2023-01-24T15:31:22;13.80;99.90
51996;DHT22;38010;53.264;6.592;2023-01-24T15:33:57;13.80;99.90
51996;DHT22;38010;53.264;6.592;2023-01-24T15:36:27;13.80;99.90
51996;DHT22;38010;53.264;6.592;2023-01-24T15:38:56;13.80;99.90
51996;DHT22;38010;53.264;6.592;2023-01-24T15:41:30;13.80;99.90
51996;DHT22;38010;53.264;6.592;2023-01-24T15:44:18;13.80;99.90
51996;DHT22;38010;53.264;6.592;2023-01-24T15:46:45;13.80;99.90
51996;DHT22;38010;53.264;6.592;2023-01-24T15:49:39;13.80;99.90
51996;DHT22;38010;53.264;6.592;2023-01-24T15:54:36;13.80;99.90
51996;DHT22;38010;53.264;6.592;2023-01-24T15:57:04;13.80;99.90
51996;DHT22;38010;53.264;6.592;2023-01-24T15:59:32;13.80;99.90
51996;DHT22;38010;53.264;6.592;2023-01-24T16:01:59;13.80;99.90
51996;DHT22;38010;53.264;6.592;2023-01-24T16:04:25;13.90;99.90
51996;DHT22;38010;53.264;6.592;2023-01-24T16:06:51;13.90;99.90
51996;DHT22;38010;53.264;6.592;2023-01-24T16:09:17;13.90;99.90
51996;DHT22;38010;53.264;6.592;2023-01-24T16:11:47;13.90;99.90
51996;DHT22;38010;53.264;6.592;2023-01-24T16:14:22;13.90;99.90
51996;DHT22;38010;53.264;6.592;2023-01-24T16:16:50;13.90;99.90
51996;DHT22;38010;53.264;6.592;2023-01-24T16:19:20;13.90;99.90
51996;DHT22;38010;53.264;6.592;2023-01-24T16:21:47;13.90;99.90
51996;DHT22;38010;53.264;6.592;2023-01-24T16:24:13;13.90;99.90
51996;DHT22;38010;53.264;6.592;2023-01-24T16:26:50;13.90;99.90
51996;DHT22;38010;53.264;6.592;2023-01-24T16:29:23;13.90;99.90
51996;DHT22;38010;53.264;6.592;2023-01-24T16:31:51;13.90;99.90
51996;DHT22;38010;53.264;6.592;2023-01-24T16:34:16;13.90;99.90
51996;DHT22;38010;53.264;6.592;2023-01-24T16:36:43;13.90;99.90
51996;DHT22;38010;53.264;6.592;2023-01-24T16:39:17;13.90;99.90
51996;DHT22;38010;53.264;6.592;2023-01-24T16:41:44;13.90;99.90
51996;DHT22;38010;53.264;6.592;2023-01-24T16:44:10;13.90;99.90
51996;DHT22;38010;53.264;6.592;2023-01-24T16:46:36;13.90;99.90
51996;DHT22;38010;53.264;6.592;2023-01-24T16:49:02;13.90;99.90
51996;DHT22;38010;53.264;6.592;2023-01-24T16:51:28;13.90;99.90
51996;DHT22;38010;53.264;6.592;2023-01-24T16:53:54;13.90;99.90
51996;DHT22;38010;53.264;6.592;2023-01-24T16:56:23;13.90;99.90
51996;DHT22;38010;53.264;6.592;2023-01-24T16:58:54;13.90;99.90
51996;DHT22;38010;53.264;6.592;2023-01-24T17:01:20;13.90;99.90
51996;DHT22;38010;53.264;6.592;2023-01-24T17:03:50;13.90;99.90
51996;DHT22;38010;53.264;6.592;2023-01-24T17:06:17;13.90;99.90
51996;DHT22;38010;53.264;6.592;2023-01-24T17:08:43;13.90;99.90
51996;DHT22;38010;53.264;6.592;2023-01-24T17:11:10;13.90;99.90
51996;DHT22;38010;53.264;6.592;2023-01-24T17:13:36;13.80;99.90
51996;DHT22;38010;53.264;6.592;2023-01-24T17:16:09;13.80;99.90
51996;DHT22;38010;53.264;6.592;2023-01-24T17:18:36;13.80;99.90
51996;DHT22;38010;53.264;6.592;2023-01-24T17:21:13;13.80;99.90
51996;DHT22;38010;53.264;6.592;2023-01-24T17:23:40;13.80;99.90
51996;DHT22;38010;53.264;6.592;2023-01-24T17:26:14;13.80;99.90
51996;DHT22;38010;53.264;6.592;2023-01-24T17:28:41;13.80;99.90
51996;DHT22;38010;53.264;6.592;2023-01-24T17:31:12;13.70;99.90
51996;DHT22;38010;53.264;6.592;2023-01-24T17:33:39;13.70;99.90
51996;DHT22;38010;53.264;6.592;2023-01-24T17:36:05;13.70;99.90
51996;DHT22;38010;53.264;6.592;2023-01-24T17:38:31;13.70;99.90
51996;DHT22;38010;53.264;6.592;2023-01-24T17:40:57;13.70;99.90
51996;DHT22;38010;53.264;6.592;2023-01-24T17:43:23;13.70;99.90
51996;DHT22;38010;53.264;6.592;2023-01-24T17:45:53;13.70;99.90
51996;DHT22;38010;53.264;6.592;2023-01-24T17:48:19;13.70;99.90
51996;DHT22;38010;53.264;6.592;2023-01-24T17:50:46;13.70;99.90
51996;DHT22;38010;53.264;6.592;2023-01-24T17:53:14;13.70;99.90
51996;DHT22;38010;53.264;6.592;2023-01-24T17:55:40;13.60;99.90
51996;DHT22;38010;53.264;6.592;2023-01-24T17:58:05;13.60;99.90
51996;DHT22;38010;53.264;6.592;2023-01-24T18:00:31;13.60;99.90
51996;DHT22;38010;53.264;6.592;2023-01-24T18:02:57;13.70;99.90
51996;DHT22;38010;53.264;6.592;2023-01-24T18:05:24;13.70;99.90
51996;DHT22;38010;53.264;6.592;2023-01-24T18:07:49;13.70;99.90
51996;DHT22;38010;53.264;6.592;2023-01-24T18:10:15;13.70;99.90
51996;DHT22;38010;53.264;6.592;2023-01-24T18:12:42;13.80;99.90
51996;DHT22;38010;53.264;6.592;2023-01-24T18:15:09;13.80;99.90